In Rescue
 
Open Full Screen Window  High Contrast Mode
October 19, 2020 7:03 PM CDT
Weather Information
Wind Direction
  ---
Wind Speed
  00 kt (0 mph)
Wind Gust
  00 kt (0 mph)
Altimeter
30.24 in
Visibility
10 SM
Temperature
01° C
34° F
Dewpoint
-05° C
23° F
Humidity
65%
1hr Rain Fall
00.00 in.
24hr Rain Fall
00.00 in.
Sky Condition
Overcast @ 3,600 ft
VFR

METAR KFFM 200003Z AUTO 00000KT 10SM OVC036 01/M05 A3024 RMK AO2

FAA Disclaimer: The data displayed is for advisory purposes only and is not to be used for flight planning or operations.